Time;durP1;ratioP1;P1;durP2;ratioP2;P2;SDS_P1;SDS_P2;PMS_P1;PMS_P2;Temp;Humidity;BMP_temperature;BMP_pressure;BME280_temperature;BME280_humidity;BME280_pressure;Samples;Min_cycle;Max_cycle;Signal;HPM_P1;HPM_P2
2022/06/07 00:00:28;;;;;;;7.45;4.28;;;;;;;;;;10447014;28;20160;-79
2022/06/07 00:05:31;;;;;;;8.68;3.78;;;;;;;;;;10446169;28;20554;-78
2022/06/07 00:10:35;;;;;;;6.22;3.97;;;;;;;;;;10450928;28;20445;-76
2022/06/07 00:15:39;;;;;;;7.85;3.95;;;;;;;;;;10443186;28;20057;-76
2022/06/07 00:20:42;;;;;;;8.70;4.47;;;;;;;;;;10434278;28;20056;-76
2022/06/07 00:25:45;;;;;;;;;;;;;;;;;;10417931;28;20545;-76
2022/06/07 00:30:50;;;;;;;6.85;4.30;;;;;;;;;;10428805;28;19952;-79
2022/06/07 00:35:53;;;;;;;7.28;4.20;;;;;;;;;;10419524;28;20048;-77
2022/06/07 00:40:56;;;;;;;7.57;4.05;;;;;;;;;;10436458;28;20072;-77
2022/06/07 00:46:01;;;;;;;7.40;4.15;;;;;;;;;;10422249;28;20033;-76
2022/06/07 00:51:05;;;;;;;7.53;4.57;;;;;;;;;;10425598;28;20094;-78
2022/06/07 00:56:07;;;;;;;8.20;4.70;;;;;;;;;;10421960;28;20556;-79
2022/06/07 01:01:11;;;;;;;7.83;4.53;;;;;;;;;;10434726;28;20524;-76
2022/06/07 01:11:36;;;;;;;5.95;3.42;;;;;;;;;;10431161;28;20529;-76
2022/06/07 01:16:41;;;;;;;6.70;3.45;;;;;;;;;;10438663;28;20037;-75
2022/06/07 01:21:48;;;;;;;5.75;3.58;;;;;;;;;;10437136;28;20048;-77
2022/06/07 01:26:57;;;;;;;8.32;3.70;;;;;;;;;;10417494;28;20041;-76
2022/06/07 01:32:10;;;;;;;8.13;3.10;;;;;;;;;;10435714;28;20041;-76
2022/06/07 01:37:21;;;;;;;7.35;3.50;;;;;;;;;;10432108;28;20041;-78
2022/06/07 01:42:25;;;;;;;6.07;3.40;;;;;;;;;;10428470;28;20341;-77
2022/06/07 01:47:29;;;;;;;5.57;3.20;;;;;;;;;;10437344;28;20037;-78
2022/06/07 01:52:34;;;;;;;7.00;3.45;;;;;;;;;;10434529;28;20298;-77
2022/06/07 01:57:36;;;;;;;4.68;2.97;;;;;;;;;;10414695;28;20033;-76
2022/06/07 02:02:40;;;;;;;5.55;3.28;;;;;;;;;;10431935;28;20104;-77
2022/06/07 02:07:45;;;;;;;6.32;3.53;;;;;;;;;;10429725;28;20033;-76
2022/06/07 02:12:47;;;;;;;6.65;3.53;;;;;;;;;;10416095;28;20645;-77
2022/06/07 02:17:50;;;;;;;6.95;3.25;;;;;;;;;;10435277;28;20046;-77
2022/06/07 02:22:54;;;;;;;5.37;3.03;;;;;;;;;;10429417;28;20032;-76
2022/06/07 02:27:57;;;;;;;5.43;3.22;;;;;;;;;;10414941;28;20446;-77
2022/06/07 02:32:59;;;;;;;6.68;3.20;;;;;;;;;;10402893;28;20123;-75
2022/06/07 02:38:04;;;;;;;7.53;3.40;;;;;;;;;;10423042;28;20466;-77
2022/06/07 02:43:13;;;;;;;6.15;3.50;;;;;;;;;;10425849;28;20033;-76
2022/06/07 02:48:16;;;;;;;5.60;3.15;;;;;;;;;;10417909;28;20034;-74
2022/06/07 02:53:19;;;;;;;;;;;;;;;;;;10417360;28;20401;-76
2022/06/07 02:58:23;;;;;;;4.63;3.03;;;;;;;;;;10428862;28;19921;-77
2022/06/07 03:03:28;;;;;;;5.63;3.13;;;;;;;;;;10427613;28;20552;-77
2022/06/07 03:08:31;;;;;;;5.60;3.05;;;;;;;;;;10429949;28;20069;-76
2022/06/07 03:13:35;;;;;;;5.15;3.05;;;;;;;;;;10411405;28;20433;-79
2022/06/07 03:18:38;;;;;;;6.18;2.88;;;;;;;;;;10433349;28;20044;-78
2022/06/07 03:23:41;;;;;;;5.75;3.28;;;;;;;;;;10412861;28;20461;-77
2022/06/07 03:28:45;;;;;;;9.98;3.72;;;;;;;;;;10426390;28;20279;-78
2022/06/07 03:33:49;;;;;;;5.28;3.25;;;;;;;;;;10413701;28;20124;-76
2022/06/07 03:38:52;;;;;;;6.03;3.25;;;;;;;;;;10425962;28;20036;-79
2022/06/07 03:43:56;;;;;;;6.40;3.30;;;;;;;;;;10431819;28;20413;-77
2022/06/07 03:48:59;;;;;;;5.38;3.08;;;;;;;;;;10417717;28;20128;-74
2022/06/07 03:54:02;;;;;;;3.55;2.60;;;;;;;;;;10430793;28;20069;-77
2022/06/07 03:59:06;;;;;;;4.68;2.65;;;;;;;;;;10423631;28;20044;-76
2022/06/07 04:04:10;;;;;;;4.55;3.10;;;;;;;;;;10431786;28;20037;-77
2022/06/07 04:09:12;;;;;;;4.95;2.70;;;;;;;;;;10429194;28;20410;-76
2022/06/07 04:14:16;;;;;;;5.03;2.53;;;;;;;;;;10413542;28;20593;-75
2022/06/07 04:19:29;;;;;;;;;;;;;;;;;;10423938;28;20091;-74
2022/06/07 04:24:32;;;;;;;5.00;2.60;;;;;;;;;;10416272;28;19936;-76
2022/06/07 04:29:36;;;;;;;5.18;3.30;;;;;;;;;;10419561;28;20124;-77
2022/06/07 04:34:45;;;;;;;5.45;2.70;;;;;;;;;;10414869;28;20094;-78
2022/06/07 04:39:48;;;;;;;4.03;2.40;;;;;;;;;;10416152;28;20536;-79
2022/06/07 04:44:52;;;;;;;6.03;2.60;;;;;;;;;;10439856;28;20103;-76
2022/06/07 04:49:55;;;;;;;3.75;2.15;;;;;;;;;;10417426;28;20132;-76
2022/06/07 04:54:57;;;;;;;2.85;1.98;;;;;;;;;;10413758;28;20061;-78
2022/06/07 05:00:02;;;;;;;3.92;2.38;;;;;;;;;;10437998;28;20469;-77
2022/06/07 05:05:06;;;;;;;6.07;2.67;;;;;;;;;;10398061;28;20460;-76
2022/06/07 05:10:10;;;;;;;4.22;2.60;;;;;;;;;;10404226;28;20064;-77
2022/06/07 05:15:14;;;;;;;2.95;2.30;;;;;;;;;;10426899;28;20500;-77
2022/06/07 05:20:16;;;;;;;4.43;2.78;;;;;;;;;;10417320;28;20318;-77
2022/06/07 05:25:19;;;;;;;4.77;2.33;;;;;;;;;;10417230;28;20033;-77
2022/06/07 05:30:24;;;;;;;3.95;2.42;;;;;;;;;;10420910;28;20914;-78
2022/06/07 05:35:27;;;;;;;3.67;2.25;;;;;;;;;;10394081;28;20083;-77
2022/06/07 05:40:29;;;;;;;4.83;2.60;;;;;;;;;;10412897;28;20140;-78
2022/06/07 05:45:33;;;;;;;3.63;2.23;;;;;;;;;;10435216;28;20059;-79
2022/06/07 05:50:36;;;;;;;5.78;2.55;;;;;;;;;;10422776;28;20370;-77
2022/06/07 05:55:39;;;;;;;4.85;2.78;;;;;;;;;;10400506;28;20068;-78
2022/06/07 06:00:48;;;;;;;6.10;2.90;;;;;;;;;;10417584;28;20132;-77
2022/06/07 06:05:51;;;;;;;5.38;3.00;;;;;;;;;;10415686;28;20041;-77
2022/06/07 06:11:02;;;;;;;4.60;2.87;;;;;;;;;;10432497;28;20041;-78
2022/06/07 06:16:10;;;;;;;7.72;3.25;;;;;;;;;;10413113;28;20033;-79
2022/06/07 06:21:13;;;;;;;6.53;3.60;;;;;;;;;;10429401;28;20127;-78
2022/06/07 06:26:18;;;;;;;5.75;3.20;;;;;;;;;;10429669;28;20033;-77
2022/06/07 06:31:23;;;;;;;4.80;2.78;;;;;;;;;;10427420;28;20049;-77
2022/06/07 06:36:27;;;;;;;4.35;2.28;;;;;;;;;;10427297;28;20088;-77
2022/06/07 06:41:47;;;;;;;3.42;2.35;;;;;;;;;;10427330;28;20132;-77
2022/06/07 06:46:51;;;;;;;3.03;2.05;;;;;;;;;;10407450;28;20047;-77
2022/06/07 06:51:54;;;;;;;3.50;1.85;;;;;;;;;;10426722;28;20057;-77
2022/06/07 06:56:57;;;;;;;5.13;2.58;;;;;;;;;;10426460;28;20532;-77
2022/06/07 07:02:01;;;;;;;4.33;2.50;;;;;;;;;;10425930;28;20037;-76
2022/06/07 07:07:04;;;;;;;3.75;2.50;;;;;;;;;;10435170;28;20033;-78
2022/06/07 07:12:07;;;;;;;3.85;2.65;;;;;;;;;;10412512;28;20531;-75
2022/06/07 07:17:11;;;;;;;4.32;2.67;;;;;;;;;;10418167;28;20543;-78
2022/06/07 07:22:14;;;;;;;3.35;2.13;;;;;;;;;;10433577;28;20472;-78
2022/06/07 07:27:17;;;;;;;5.53;2.50;;;;;;;;;;10410267;28;20034;-78
2022/06/07 07:32:21;;;;;;;5.50;3.00;;;;;;;;;;10434434;28;20045;-76
2022/06/07 07:37:24;;;;;;;5.57;2.90;;;;;;;;;;10423869;28;20056;-78
2022/06/07 07:42:27;;;;;;;5.70;2.80;;;;;;;;;;10414218;28;20517;-76
2022/06/07 07:47:31;;;;;;;6.70;3.03;;;;;;;;;;10410105;28;20804;-77
2022/06/07 07:52:33;;;;;;;8.32;3.80;;;;;;;;;;10429964;28;20167;-78
2022/06/07 07:57:36;;;;;;;5.30;3.30;;;;;;;;;;10422692;28;20041;-79
2022/06/07 08:02:40;;;;;;;8.05;3.55;;;;;;;;;;10418502;28;20585;-76
2022/06/07 08:07:43;;;;;;;5.40;3.00;;;;;;;;;;10440647;28;20038;-77
2022/06/07 08:13:00;;;;;;;6.43;3.08;;;;;;;;;;10430009;28;20040;-77
2022/06/07 08:18:04;;;;;;;6.47;3.42;;;;;;;;;;10438152;28;20498;-78
2022/06/07 08:23:08;;;;;;;5.70;3.17;;;;;;;;;;10416270;28;20405;-78
2022/06/07 08:28:11;;;;;;;4.63;2.55;;;;;;;;;;10424394;28;20037;-78
2022/06/07 08:38:36;;;;;;;4.88;2.80;;;;;;;;;;10433733;28;19925;-78
2022/06/07 08:43:39;;;;;;;4.63;3.00;;;;;;;;;;10427054;28;20458;-77
2022/06/07 08:48:42;;;;;;;5.30;2.65;;;;;;;;;;10438889;28;20039;-78
2022/06/07 08:53:50;;;;;;;4.80;3.03;;;;;;;;;;10430643;28;20041;-78
2022/06/07 08:58:53;;;;;;;6.07;2.60;;;;;;;;;;10418757;28;20572;-79
2022/06/07 09:04:02;;;;;;;3.20;2.22;;;;;;;;;;10435634;28;20647;-79
2022/06/07 09:09:06;;;;;;;4.38;2.72;;;;;;;;;;10441177;28;20440;-78
2022/06/07 09:14:11;;;;;;;3.92;2.90;;;;;;;;;;10420495;28;20553;-79
2022/06/07 09:19:17;;;;;;;5.68;2.80;;;;;;;;;;10416401;28;20049;-78
2022/06/07 09:24:25;;;;;;;5.55;3.40;;;;;;;;;;10430825;28;20095;-78
2022/06/07 09:29:31;;;;;;;6.30;3.58;;;;;;;;;;10432386;28;20033;-78
2022/06/07 09:34:34;;;;;;;7.95;4.00;;;;;;;;;;10432307;28;20053;-78
2022/06/07 09:39:39;;;;;;;4.10;2.80;;;;;;;;;;10428637;28;20056;-76
2022/06/07 09:44:55;;;;;;;6.30;3.67;;;;;;;;;;10430688;28;20041;-78
2022/06/07 09:49:59;;;;;;;6.00;4.43;;;;;;;;;;10432448;28;20041;-78
2022/06/07 09:55:05;;;;;;;5.35;3.35;;;;;;;;;;10410506;28;20203;-77
2022/06/07 10:00:17;;;;;;;7.13;3.88;;;;;;;;;;10413649;28;20033;-77
2022/06/07 10:05:23;;;;;;;7.30;3.63;;;;;;;;;;10435778;28;20329;-77
2022/06/07 10:10:30;;;;;;;8.60;3.58;;;;;;;;;;10412477;28;20042;-78
2022/06/07 10:15:36;;;;;;;6.07;3.60;;;;;;;;;;10425759;28;20037;-76
2022/06/07 10:20:47;;;;;;;7.38;3.80;;;;;;;;;;10411078;28;20059;-77
2022/06/07 10:25:58;;;;;;;4.45;3.33;;;;;;;;;;10404874;28;20041;-77
2022/06/07 10:31:03;;;;;;;5.85;3.30;;;;;;;;;;10433895;28;20045;-76
2022/06/07 10:36:11;;;;;;;6.65;3.50;;;;;;;;;;10410183;28;20033;-77
2022/06/07 10:41:20;;;;;;;6.65;3.90;;;;;;;;;;10437976;28;20477;-77
2022/06/07 10:46:23;;;;;;;7.47;4.70;;;;;;;;;;10437163;28;20044;-78
2022/06/07 10:56:53;;;;;;;8.63;4.70;;;;;;;;;;10432011;28;20068;-78
2022/06/07 11:02:01;;;;;;;5.93;3.60;;;;;;;;;;10439764;28;20144;-77
2022/06/07 11:12:24;;;;;;;7.45;3.50;;;;;;;;;;10413365;28;20053;-78
2022/06/07 11:17:29;;;;;;;4.30;3.30;;;;;;;;;;10421685;28;20115;-78
2022/06/07 11:22:36;;;;;;;4.60;2.88;;;;;;;;;;10434348;28;20178;-78
2022/06/07 11:27:51;;;;;;;3.85;2.75;;;;;;;;;;10418008;28;20053;-77
2022/06/07 11:32:56;;;;;;;3.25;2.78;;;;;;;;;;10425882;28;20067;-78
2022/06/07 11:38:00;;;;;;;5.38;3.40;;;;;;;;;;10415191;28;20033;-78
2022/06/07 11:43:04;;;;;;;2.53;2.20;;;;;;;;;;10448207;28;20038;-76
2022/06/07 11:48:13;;;;;;;3.83;2.00;;;;;;;;;;10431170;28;20042;-75
2022/06/07 11:53:21;;;;;;;3.85;2.45;;;;;;;;;;10427570;28;20470;-78
2022/06/07 11:58:43;;;;;;;3.45;2.53;;;;;;;;;;10418059;28;20049;-77
2022/06/07 12:04:06;;;;;;;3.70;1.93;;;;;;;;;;10425724;28;20124;-77
2022/06/07 12:09:16;;;;;;;2.63;2.13;;;;;;;;;;10416065;28;20128;-78
2022/06/07 12:14:34;;;;;;;2.95;2.40;;;;;;;;;;10391341;28;20049;-77
2022/06/07 12:19:45;;;;;;;2.20;1.80;;;;;;;;;;10408534;28;20136;-77
2022/06/07 12:24:49;;;;;;;3.25;1.75;;;;;;;;;;10412885;28;20501;-77
2022/06/07 12:29:54;;;;;;;2.80;1.65;;;;;;;;;;10428271;28;20033;-78
2022/06/07 12:35:06;;;;;;;3.63;1.60;;;;;;;;;;10401120;28;20511;-79
2022/06/07 12:40:22;;;;;;;1.38;1.25;;;;;;;;;;10413387;28;20033;-78
2022/06/07 12:45:25;;;;;;;1.00;1.00;;;;;;;;;;10439103;28;20040;-78
2022/06/07 12:50:31;;;;;;;2.13;1.30;;;;;;;;;;10442372;28;20037;-78
2022/06/07 12:55:36;;;;;;;0.90;0.90;;;;;;;;;;10433597;28;21210;-78
2022/06/07 13:00:42;;;;;;;3.25;1.20;;;;;;;;;;10430964;28;20041;-76
2022/06/07 13:05:46;;;;;;;1.73;1.02;;;;;;;;;;10438672;28;20052;-77
2022/06/07 13:10:49;;;;;;;1.45;1.10;;;;;;;;;;10421989;28;20423;-76
2022/06/07 13:15:54;;;;;;;1.20;0.93;;;;;;;;;;10414468;28;20516;-77
2022/06/07 13:21:13;;;;;;;1.15;0.90;;;;;;;;;;10426911;28;20029;-75
2022/06/07 13:26:22;;;;;;;1.80;1.35;;;;;;;;;;10408909;28;20037;-77
2022/06/07 13:31:28;;;;;;;1.65;0.90;;;;;;;;;;10433628;28;20040;-78
2022/06/07 13:36:35;;;;;;;1.65;1.02;;;;;;;;;;10419385;28;20056;-78
2022/06/07 13:41:46;;;;;;;3.00;1.10;;;;;;;;;;10424160;28;20459;-75
2022/06/07 13:46:53;;;;;;;0.80;0.80;;;;;;;;;;10430918;28;20060;-78
2022/06/07 13:57:44;;;;;;;2.92;1.73;;;;;;;;;;10431445;28;20033;-77
2022/06/07 14:02:47;;;;;;;1.45;1.00;;;;;;;;;;10416784;28;20064;-76
2022/06/07 14:07:52;;;;;;;1.30;0.90;;;;;;;;;;10414058;28;20040;-78
2022/06/07 14:12:55;;;;;;;2.33;0.80;;;;;;;;;;10435262;28;20782;-78
2022/06/07 14:18:12;;;;;;;2.47;1.00;;;;;;;;;;10418748;28;20510;-77
2022/06/07 14:23:19;;;;;;;3.65;1.45;;;;;;;;;;10437719;28;20134;-79
2022/06/07 14:28:23;;;;;;;1.40;1.20;;;;;;;;;;10425215;28;20071;-78
2022/06/07 14:33:37;;;;;;;3.47;1.38;;;;;;;;;;10429429;28;20032;-78
2022/06/07 14:38:41;;;;;;;1.85;1.42;;;;;;;;;;10426933;28;20041;-76
2022/06/07 14:43:44;;;;;;;1.30;1.20;;;;;;;;;;10427793;28;20041;-78
2022/06/07 14:48:53;;;;;;;2.28;1.20;;;;;;;;;;10415738;28;20040;-77
2022/06/07 14:53:59;;;;;;;2.90;1.20;;;;;;;;;;10427665;28;20029;-78
2022/06/07 14:59:02;;;;;;;3.10;2.00;;;;;;;;;;10404021;28;20033;-76
2022/06/07 15:04:07;;;;;;;3.40;2.05;;;;;;;;;;10406657;28;20044;-77
2022/06/07 15:09:13;;;;;;;4.22;2.47;;;;;;;;;;10404741;28;20513;-76
2022/06/07 15:14:16;;;;;;;4.75;2.10;;;;;;;;;;10405596;28;20424;-78
2022/06/07 15:19:22;;;;;;;8.25;3.80;;;;;;;;;;10411880;28;20044;-77
2022/06/07 15:24:28;;;;;;;13.40;6.35;;;;;;;;;;10411862;28;20049;-78
2022/06/07 15:34:54;;;;;;;2.65;1.08;;;;;;;;;;10403512;28;20065;-77
2022/06/07 15:39:59;;;;;;;3.90;2.28;;;;;;;;;;10391699;28;20113;-78
2022/06/07 15:45:01;;;;;;;1.73;1.27;;;;;;;;;;10407230;28;20049;-78
2022/06/07 15:50:09;;;;;;;2.03;1.30;;;;;;;;;;10424144;28;20043;-77
2022/06/07 15:55:14;;;;;;;1.13;0.98;;;;;;;;;;10427703;28;20081;-78
2022/06/07 16:00:17;;;;;;;0.80;0.80;;;;;;;;;;10408712;28;20065;-77
2022/06/07 16:05:21;;;;;;;2.53;1.23;;;;;;;;;;10410455;28;20636;-77
2022/06/07 16:10:26;;;;;;;1.70;1.48;;;;;;;;;;10435628;28;20044;-77
2022/06/07 16:15:29;;;;;;;3.55;1.15;;;;;;;;;;10419956;28;20121;-76
2022/06/07 16:20:32;;;;;;;4.82;2.47;;;;;;;;;;10437904;28;20030;-78
2022/06/07 16:25:35;;;;;;;;;;;;;;;;;;10425657;28;20041;-75
2022/06/07 16:36:01;;;;;;;2.15;1.50;;;;;;;;;;10414401;28;20041;-74
2022/06/07 16:41:03;;;;;;;3.00;1.65;;;;;;;;;;10431287;28;20422;-76
2022/06/07 16:46:08;;;;;;;2.33;0.97;;;;;;;;;;10433421;28;20045;-76
2022/06/07 16:51:12;;;;;;;1.75;1.50;;;;;;;;;;10431999;28;20315;-74
2022/06/07 16:56:15;;;;;;;2.08;1.50;;;;;;;;;;10414950;28;20064;-73
2022/06/07 17:01:20;;;;;;;2.53;1.40;;;;;;;;;;10440613;28;20037;-72
2022/06/07 17:06:23;;;;;;;2.15;1.20;;;;;;;;;;10438451;28;20083;-74
2022/06/07 17:11:26;;;;;;;2.22;1.60;;;;;;;;;;10415973;28;20437;-72
2022/06/07 17:16:30;;;;;;;3.58;1.80;;;;;;;;;;10417902;28;20529;-75
2022/06/07 17:21:33;;;;;;;6.32;2.05;;;;;;;;;;10429215;28;20131;-74
2022/06/07 17:26:37;;;;;;;0.68;0.68;;;;;;;;;;10432633;28;20049;-74
2022/06/07 17:31:41;;;;;;;1.83;1.50;;;;;;;;;;10418069;28;20401;-72
2022/06/07 17:36:44;;;;;;;1.60;1.30;;;;;;;;;;10427219;28;20190;-75
2022/06/07 17:41:47;;;;;;;1.83;1.48;;;;;;;;;;10428688;28;20052;-74
2022/06/07 17:46:52;;;;;;;3.23;1.70;;;;;;;;;;10420061;28;20133;-74
2022/06/07 17:51:55;;;;;;;5.38;2.95;;;;;;;;;;10436091;28;20033;-73
2022/06/07 17:56:59;;;;;;;;;;;;;;;;;;10422877;28;20068;-74
2022/06/07 18:02:03;;;;;;;7.72;3.80;;;;;;;;;;10405254;28;19931;-73
2022/06/07 18:07:07;;;;;;;3.08;1.80;;;;;;;;;;10424529;28;20071;-75
2022/06/07 18:12:09;;;;;;;3.55;1.90;;;;;;;;;;10433393;28;20033;-76
2022/06/07 18:17:14;;;;;;;3.20;1.90;;;;;;;;;;10434633;28;20037;-75
2022/06/07 18:22:20;;;;;;;1.50;1.20;;;;;;;;;;10409664;28;20087;-75
2022/06/07 18:27:24;;;;;;;3.13;1.90;;;;;;;;;;10429428;28;20146;-75
2022/06/07 18:32:29;;;;;;;2.55;1.70;;;;;;;;;;10430264;28;20033;-75
2022/06/07 18:37:33;;;;;;;6.53;2.42;;;;;;;;;;10438491;28;20033;-76
2022/06/07 18:42:36;;;;;;;5.22;2.33;;;;;;;;;;10400709;28;20048;-72
2022/06/07 18:47:46;;;;;;;2.17;1.48;;;;;;;;;;10427981;28;20456;-75
2022/06/07 18:52:50;;;;;;;2.05;1.25;;;;;;;;;;10407784;28;20040;-75
2022/06/07 18:57:54;;;;;;;1.98;1.77;;;;;;;;;;10420173;28;20127;-75
2022/06/07 19:02:58;;;;;;;2.08;1.77;;;;;;;;;;10417698;28;20048;-75
2022/06/07 19:08:02;;;;;;;2.97;1.60;;;;;;;;;;10431859;28;20057;-75
2022/06/07 19:13:06;;;;;;;3.42;1.73;;;;;;;;;;10426479;28;20094;-76
2022/06/07 19:18:12;;;;;;;1.92;1.30;;;;;;;;;;10430482;28;20040;-75
2022/06/07 19:23:16;;;;;;;2.30;1.70;;;;;;;;;;10433392;28;20572;-73
2022/06/07 19:28:21;;;;;;;4.45;1.90;;;;;;;;;;10432623;28;20090;-74
2022/06/07 19:33:27;;;;;;;2.67;1.77;;;;;;;;;;10439617;28;20036;-74
2022/06/07 19:38:30;;;;;;;4.05;2.00;;;;;;;;;;10444105;28;20036;-75
2022/06/07 19:43:33;;;;;;;3.90;2.10;;;;;;;;;;10445079;28;20121;-73
2022/06/07 19:48:38;;;;;;;5.85;1.90;;;;;;;;;;10446931;28;20041;-72
2022/06/07 19:53:42;;;;;;;5.82;3.35;;;;;;;;;;10443712;28;20095;-75
2022/06/07 19:58:47;;;;;;;3.28;2.00;;;;;;;;;;10454401;28;20086;-74
2022/06/07 20:03:53;;;;;;;3.20;2.17;;;;;;;;;;10448885;28;20044;-77
2022/06/07 20:08:57;;;;;;;3.65;2.10;;;;;;;;;;10432247;28;20240;-77
2022/06/07 20:14:00;;;;;;;3.10;2.03;;;;;;;;;;10419567;28;20134;-76
2022/06/07 20:19:06;;;;;;;5.05;2.13;;;;;;;;;;10458625;28;20544;-78
2022/06/07 20:24:11;;;;;;;1.60;1.23;;;;;;;;;;10431756;28;20045;-77
2022/06/07 20:29:14;;;;;;;2.45;1.15;;;;;;;;;;10455214;28;20224;-76
2022/06/07 20:34:18;;;;;;;2.08;1.50;;;;;;;;;;10426992;28;20053;-76
2022/06/07 20:39:21;;;;;;;2.00;1.40;;;;;;;;;;10416826;28;20410;-77
2022/06/07 20:44:23;;;;;;;2.97;1.70;;;;;;;;;;10437336;28;20036;-78
2022/06/07 20:49:27;;;;;;;;;;;;;;;;;;10438582;28;20303;-79
2022/06/07 20:54:33;;;;;;;1.95;1.35;;;;;;;;;;10438054;28;20000;-77
2022/06/07 20:59:36;;;;;;;1.48;1.20;;;;;;;;;;10415610;28;20068;-75
2022/06/07 21:04:40;;;;;;;1.98;1.60;;;;;;;;;;10415090;28;20445;-77
2022/06/07 21:09:45;;;;;;;3.05;1.40;;;;;;;;;;10425695;28;20443;-76
2022/06/07 21:14:48;;;;;;;1.52;1.10;;;;;;;;;;10414443;28;20045;-77
2022/06/07 21:19:51;;;;;;;1.13;0.90;;;;;;;;;;10407703;28;20098;-77
2022/06/07 21:24:56;;;;;;;2.17;1.50;;;;;;;;;;10413473;28;20162;-75
2022/06/07 21:29:59;;;;;;;2.13;1.48;;;;;;;;;;10428428;28;20140;-77
2022/06/07 21:35:02;;;;;;;4.17;1.70;;;;;;;;;;10430554;28;20037;-77
2022/06/07 21:40:07;;;;;;;1.27;1.17;;;;;;;;;;10410251;28;20041;-77
2022/06/07 21:45:12;;;;;;;1.83;0.93;;;;;;;;;;10411331;28;20037;-77
2022/06/07 21:50:16;;;;;;;0.98;0.98;;;;;;;;;;10432487;28;20044;-77
2022/06/07 21:55:22;;;;;;;1.67;1.30;;;;;;;;;;10435531;28;20256;-77
2022/06/07 22:00:26;;;;;;;1.90;1.50;;;;;;;;;;10404535;28;20084;-76
2022/06/07 22:05:30;;;;;;;2.50;1.42;;;;;;;;;;10410866;28;20040;-77
2022/06/07 22:10:34;;;;;;;1.50;1.10;;;;;;;;;;10431309;28;20401;-77
2022/06/07 22:15:39;;;;;;;1.85;1.30;;;;;;;;;;10410292;28;20061;-77
2022/06/07 22:20:41;;;;;;;3.13;1.40;;;;;;;;;;10431577;28;20058;-77
2022/06/07 22:25:48;;;;;;;2.53;1.50;;;;;;;;;;10409547;28;20049;-77
2022/06/07 22:30:55;;;;;;;3.50;1.60;;;;;;;;;;10415870;28;20064;-76
2022/06/07 22:35:58;;;;;;;4.87;1.60;;;;;;;;;;10388509;28;20519;-74
2022/06/07 22:41:03;;;;;;;2.42;1.42;;;;;;;;;;10383487;28;20055;-77
2022/06/07 22:46:06;;;;;;;1.85;1.20;;;;;;;;;;10410498;28;20516;-76
2022/06/07 22:51:10;;;;;;;2.00;1.33;;;;;;;;;;10425843;28;20030;-76
2022/06/07 22:56:14;;;;;;;4.53;1.55;;;;;;;;;;10405733;28;20061;-77
2022/06/07 23:01:20;;;;;;;1.73;1.30;;;;;;;;;;10387828;28;20061;-77
2022/06/07 23:06:26;;;;;;;0.77;0.77;;;;;;;;;;10406354;28;20469;-77
2022/06/07 23:11:30;;;;;;;2.22;1.63;;;;;;;;;;10397503;28;20079;-77
2022/06/07 23:21:53;;;;;;;2.25;1.50;;;;;;;;;;10413868;28;20060;-77
2022/06/07 23:26:58;;;;;;;2.75;1.42;;;;;;;;;;10393340;28;20036;-77
2022/06/07 23:32:01;;;;;;;1.75;1.13;;;;;;;;;;10380773;28;20111;-75
2022/06/07 23:37:04;;;;;;;1.80;1.30;;;;;;;;;;10403839;28;20037;-78
2022/06/07 23:42:09;;;;;;;2.00;1.50;;;;;;;;;;10414620;28;20060;-75
2022/06/07 23:47:14;;;;;;;1.75;1.38;;;;;;;;;;10397310;28;20049;-77
2022/06/07 23:52:18;;;;;;;1.52;1.20;;;;;;;;;;10430456;28;20382;-74
2022/06/07 23:57:22;;;;;;;0.50;0.50;;;;;;;;;;10423335;28;20365;-77
